Time;durP1;ratioP1;P1;durP2;ratioP2;P2;SDS_P1;SDS_P2;PMS_P1;PMS_P2;Temp;Humidity;BMP_temperature;BMP_pressure;BME280_temperature;BME280_humidity;BME280_pressure;Samples;Min_cycle;Max_cycle;Signal;HPM_P1;HPM_P2
2022/06/04 12:43:30;;;;;;;;;;;;;;;22.73;67.33;100029.38;1087225;54;19950;-83
2022/06/04 12:44:37;;;;;;;;;;;;;;;22.71;66.97;100026.03;1088386;54;20761;-83
2022/06/04 12:45:40;;;;;;;;;;;;;;;22.73;66.75;100030.19;1088180;54;20426;-81
2022/06/04 12:46:44;;;;;;;;;;;;;;;22.52;65.95;100023.28;1088502;54;19946;-83
2022/06/04 12:51:12;;;;;;;;;;;;;;;22.68;67.27;100018.31;1088275;54;19930;-83
2022/06/04 12:52:29;;;;;;;;;;;;;;;22.49;66.52;100010.09;1087768;54;19939;-80
2022/06/04 12:53:32;;;;;;;;;;;;;;;22.49;67.43;100012.00;1088549;54;20583;-84
2022/06/04 12:54:46;;;;;;;;;;;;;;;22.57;67.53;100017.16;1088545;54;19966;-81
2022/06/04 12:55:53;;;;;;;;;;;;;;;22.63;67.39;100010.00;1088546;54;19949;-84
2022/06/04 12:56:56;;;;;;;;;;;;;;;22.74;67.25;100009.25;1088580;54;19938;-83
2022/06/04 12:58:23;;;;;;;;;;;;;;;22.81;66.82;100014.63;1088450;54;19938;-82
2022/06/04 12:59:43;;;;;;;;;;;;;;;22.87;66.03;100009.09;1088806;54;19949;-83
2022/06/04 13:00:55;;;;;;;;;;;;;;;22.92;66.15;100013.84;1088631;54;19943;-80
2022/06/04 13:32:26;;;;;;;;;;;;;;;23.66;62.83;100013.75;1087185;39;20598;-79
2022/06/04 13:33:28;;;;;;;;;;;;;;;23.75;62.94;100025.19;1086460;54;19954;-79
2022/06/04 13:34:34;;;;;;;;;;;;;;;23.82;62.59;100022.38;1086283;54;20784;-76
2022/06/04 13:35:41;;;;;;;;;;;;;;;23.79;62.41;100022.81;1086421;54;19973;-81
2022/06/04 13:36:48;;;;;;;;;;;;;;;23.92;62.42;100008.13;1087522;39;20044;-76
2022/06/04 13:37:51;;;;;;;;;;;;;;;23.87;62.34;100017.03;1086335;54;19962;-80
2022/06/04 13:38:56;;;;;;;;;;;;;;;23.93;62.43;100016.09;1087161;54;20091;-78
2022/06/04 13:39:59;;;;;;;;;;;;;;;23.99;62.07;100015.19;1086981;54;19951;-83
2022/06/04 13:41:04;;;;;;;;;;;;;;;23.95;61.11;100003.06;1086427;54;19993;-81
2022/06/04 13:42:12;;;;;;;;;;;;;;;23.95;61.99;100011.25;1087020;54;19969;-76
2022/06/04 13:43:16;;;;;;;;;;;;;;;23.89;61.31;100006.72;1087171;54;19924;-76
2022/06/04 13:44:18;;;;;;;;;;;;;;;23.97;62.29;100008.31;1087388;54;19938;-79
2022/06/04 13:45:31;;;;;;;;;;;;;;;23.92;61.57;100002.66;1087082;54;20674;-80
2022/06/04 13:46:34;;;;;;;;;;;;;;;23.81;61.79;100002.41;1087079;54;19949;-82
2022/06/04 13:47:49;;;;;;;;;;;;;;;23.81;61.95;100005.13;1086985;54;20025;-77
2022/06/04 13:48:55;;;;;;;;;;;;;;;23.78;60.05;99999.31;1086599;54;19950;-79
2022/06/04 13:50:15;;;;;;;;;;;;;;;23.64;60.66;99998.69;1087165;54;20464;-80
2022/06/04 13:51:18;;;;;;;;;;;;;;;23.69;61.15;100012.47;1087690;54;19947;-76
2022/06/04 13:52:23;;;;;;;;;;;;;;;23.56;60.61;100002.59;1086309;54;20432;-72
2022/06/04 13:53:25;;;;;;;;;;;;;;;23.56;60.98;100004.47;1086582;54;19946;-78
2022/06/04 13:54:33;;;;;;;;;;;;;;;23.49;61.18;99999.97;1086846;54;19947;-77
2022/06/04 13:55:39;;;;;;;;;;;;;;;23.47;61.79;99999.34;1087853;54;19934;-78
2022/06/04 13:56:43;;;;;;;;;;;;;;;23.62;61.76;100000.81;1087417;54;19946;-82
2022/06/04 13:57:48;;;;;;;;;;;;;;;23.72;61.79;99992.91;1086222;54;19950;-78
2022/06/04 13:58:50;;;;;;;;;;;;;;;23.76;61.08;99998.72;1087349;54;19939;-77
2022/06/04 13:59:54;;;;;;;;;;;;;;;23.86;60.87;99990.78;1086979;54;19946;-76
2022/06/04 14:00:59;;;;;;;;;;;;;;;23.83;60.73;99988.56;1086726;54;19939;-75
2022/06/04 14:02:04;;;;;;;;;;;;;;;23.81;60.76;99991.50;1087186;54;19943;-76
2022/06/04 14:03:13;;;;;;;;;;;;;;;23.83;60.77;99988.56;1086545;54;19946;-76
2022/06/04 14:05:46;;;;;;;;;;;;;;;24.02;60.55;99994.78;1087325;54;20475;-80
2022/06/04 14:06:49;;;;;;;;;;;;;;;24.18;59.72;99982.31;1086959;54;19981;-75
2022/06/04 14:07:53;;;;;;;;;;;;;;;24.37;59.42;99984.94;1087710;54;19933;-78
2022/06/04 14:08:54;;;;;;;;;;;;;;;24.55;58.94;99986.72;1087774;54;19963;-79
2022/06/04 14:09:59;;;;;;;;;;;;;;;24.76;57.67;99983.38;1090703;39;20415;-78
2022/06/04 14:11:11;;;;;;;;;;;;;;;25.10;57.84;99984.63;1087355;54;19954;-76
2022/06/04 14:12:17;;;;;;;;;;;;;;;25.31;56.14;99983.13;1087655;54;19954;-76
2022/06/04 14:13:27;;;;;;;;;;;;;;;25.42;55.49;99974.06;1087591;54;19962;-79
2022/06/04 14:14:35;;;;;;;;;;;;;;;25.70;55.05;99984.13;1087209;54;20444;-82
2022/06/04 14:15:43;;;;;;;;;;;;;;;26.10;55.27;99984.28;1087741;54;20456;-78
2022/06/04 14:16:54;;;;;;;;;;;;;;;26.40;53.36;99977.59;1087606;54;19945;-79
2022/06/04 14:18:13;;;;;;;;;;;;;;;26.45;53.31;99983.16;1087865;54;19947;-80
2022/06/04 14:19:32;;;;;;;;;;;;;;;26.46;52.82;99977.44;1088039;46;19951;-78
2022/06/04 14:20:42;;;;;;;;;;;;;;;26.70;52.42;99970.88;1087808;54;19950;-78
2022/06/04 14:21:52;;;;;;;;;;;;;;;26.65;51.36;99984.50;1087925;54;19938;-78
2022/06/04 14:23:02;;;;;;;;;;;;;;;26.55;50.74;99980.56;1087779;54;20053;-82
2022/06/04 14:24:09;;;;;;;;;;;;;;;26.49;51.23;99976.09;1087533;46;19947;-79
2022/06/04 14:25:18;;;;;;;;;;;;;;;26.76;51.76;99978.09;1087349;54;19947;-76
2022/06/04 14:26:29;;;;;;;;;;;;;;;26.80;50.39;99975.69;1087183;54;19942;-76
2022/06/04 14:27:35;;;;;;;;;;;;;;;27.03;50.50;99982.84;1087497;54;19965;-80
2022/06/04 14:28:42;;;;;;;;;;;;;;;27.37;50.40;99974.47;1087393;54;19975;-77
2022/06/04 14:29:47;;;;;;;;;;;;;;;27.43;49.83;99980.81;1086929;54;19946;-77
2022/06/04 14:30:56;;;;;;;;;;;;;;;27.32;49.26;99974.38;1087460;39;20341;-76
2022/06/04 14:32:05;;;;;;;;;;;;;;;27.62;49.24;99973.06;1086324;54;19945;-77
2022/06/04 14:33:18;;;;;;;;;;;;;;;27.69;47.90;99973.69;1086305;54;19953;-75
2022/06/04 14:34:22;;;;;;;;;;;;;;;27.65;47.68;99973.38;1087143;39;20357;-77
2022/06/04 14:35:34;;;;;;;;;;;;;;;27.86;48.62;99973.56;1085781;54;19947;-78
2022/06/04 14:36:47;;;;;;;;;;;;;;;27.78;47.60;99968.56;1086265;54;19947;-76
2022/06/04 14:37:52;;;;;;;;;;;;;;;27.42;48.14;99976.41;1086411;54;19946;-78
2022/06/04 14:38:54;;;;;;;;;;;;;;;27.59;48.33;99968.09;1087097;54;19973;-79
2022/06/04 14:40:00;;;;;;;;;;;;;;;27.79;47.92;99968.28;1086247;54;19950;-76
2022/06/04 14:41:08;;;;;;;;;;;;;;;28.07;48.22;99965.47;1086792;54;19950;-77
2022/06/04 14:42:24;;;;;;;;;;;;;;;27.86;47.70;99963.41;1087698;54;19950;-79
2022/06/04 14:43:44;;;;;;;;;;;;;;;27.78;48.13;99963.06;1088911;39;20380;-78
2022/06/04 14:44:53;;;;;;;;;;;;;;;27.77;48.84;99964.16;1087410;54;19943;-77
2022/06/04 14:46:05;;;;;;;;;;;;;;;27.28;48.75;99965.84;1085909;54;19973;-79
2022/06/04 14:47:15;;;;;;;;;;;;;;;27.03;48.44;99969.13;1086744;46;19990;-80
2022/06/04 14:48:40;;;;;;;;;;;;;;;26.81;49.30;99961.75;1087087;54;19950;-76
2022/06/04 14:49:50;;;;;;;;;;;;;;;26.85;49.70;99960.13;1086954;54;20188;-80
2022/06/04 14:51:05;;;;;;;;;;;;;;;26.89;50.05;99958.56;1087373;54;20788;-79
2022/06/04 14:52:32;;;;;;;;;;;;;;;27.10;49.40;99964.28;1086575;54;19947;-78
2022/06/04 14:53:36;;;;;;;;;;;;;;;27.29;48.75;99961.19;1087663;54;19994;-78
2022/06/04 14:54:40;;;;;;;;;;;;;;;27.38;47.36;99959.66;1087473;54;20540;-78
2022/06/04 14:55:56;;;;;;;;;;;;;;;27.48;47.55;99958.94;1087459;54;20087;-76
2022/06/04 14:57:04;;;;;;;;;;;;;;;27.45;47.14;99959.44;1086821;54;19977;-82
2022/06/04 14:58:28;;;;;;;;;;;;;;;27.48;46.98;99959.78;1087367;54;19922;-76
2022/06/04 14:59:42;;;;;;;;;;;;;;;27.47;46.87;99957.28;1086645;39;20322;-79
2022/06/04 15:00:52;;;;;;;;;;;;;;;27.55;47.29;99960.41;1086394;54;19947;-77
2022/06/04 15:02:08;;;;;;;;;;;;;;;27.65;47.44;99958.84;1089161;31;20539;-77
2022/06/04 15:03:24;;;;;;;;;;;;;;;27.73;47.47;99966.59;1087569;31;20415;-83
2022/06/04 15:04:34;;;;;;;;;;;;;;;27.71;46.93;99957.78;1087415;54;19942;-80
2022/06/04 15:05:43;;;;;;;;;;;;;;;27.78;46.51;99963.06;1087213;54;19943;-83
2022/06/04 15:06:57;;;;;;;;;;;;;;;27.92;46.36;99963.44;1086847;54;20613;-81
2022/06/04 15:08:15;;;;;;;;;;;;;;;27.81;46.05;99966.09;1086357;54;19977;-78
2022/06/04 15:09:31;;;;;;;;;;;;;;;27.74;45.68;99962.75;1085735;54;19954;-81
2022/06/04 15:10:33;;;;;;;;;;;;;;;27.45;45.51;99960.28;1085170;54;19976;-78
2022/06/04 15:11:55;;;;;;;;;;;;;;;27.51;46.63;99964.72;1084701;54;20677;-78
2022/06/04 15:13:05;;;;;;;;;;;;;;;27.65;46.63;99961.56;1085364;54;19957;-78
2022/06/04 15:14:13;;;;;;;;;;;;;;;27.40;46.94;99955.56;1085671;54;19946;-76
2022/06/04 15:15:24;;;;;;;;;;;;;;;27.25;47.59;99960.91;1086609;54;19957;-80
2022/06/04 15:16:34;;;;;;;;;;;;;;;27.30;47.92;99954.63;1086387;54;19954;-77
2022/06/04 15:17:43;;;;;;;;;;;;;;;27.03;48.61;99963.63;1085489;54;19947;-76
2022/06/04 15:19:04;;;;;;;;;;;;;;;27.08;48.33;99955.47;1084985;39;20390;-78
2022/06/04 15:20:14;;;;;;;;;;;;;;;27.39;47.89;99945.66;1084103;54;19977;-76
2022/06/04 15:21:19;;;;;;;;;;;;;;;27.30;47.66;99954.63;1084616;54;19946;-81
2022/06/04 15:22:36;;;;;;;;;;;;;;;27.42;47.33;99959.97;1086130;54;19974;-77
2022/06/04 15:23:51;;;;;;;;;;;;;;;27.45;47.71;99948.47;1085450;54;19946;-77
2022/06/04 15:25:01;;;;;;;;;;;;;;;27.30;48.08;99957.38;1085142;54;19950;-78
2022/06/04 15:26:07;;;;;;;;;;;;;;;27.21;47.49;99955.06;1085229;54;20476;-79
2022/06/04 15:27:16;;;;;;;;;;;;;;;27.10;48.26;99964.28;1085745;54;20015;-77
2022/06/04 15:34:00;;;;;;;;;;;;;;;27.02;47.99;99951.84;1085358;54;20602;-78
2022/06/04 15:35:07;;;;;;;;;;;;;;;26.88;48.57;99951.41;1086007;54;20507;-78
2022/06/04 15:36:16;;;;;;;;;;;;;;;26.80;48.81;99949.13;1085613;46;19954;-77
2022/06/04 15:37:24;;;;;;;;;;;;;;;26.80;48.55;99949.13;1085336;54;19947;-76
2022/06/04 15:38:33;;;;;;;;;;;;;;;26.51;48.26;99952.00;1085639;54;19954;-81
2022/06/04 15:39:38;;;;;;;;;;;;;;;26.36;49.15;99955.34;1085630;54;19938;-82
2022/06/04 15:41:10;;;;;;;;;;;;;;;26.24;48.94;99952.72;1085523;54;19946;-78
2022/06/04 15:42:21;;;;;;;;;;;;;;;26.31;49.17;99955.28;1085317;54;19938;-75
2022/06/04 15:43:24;;;;;;;;;;;;;;;26.36;48.83;99940.81;1084609;54;19966;-78
2022/06/04 15:44:29;;;;;;;;;;;;;;;26.40;48.80;99944.72;1085664;54;19975;-79
2022/06/04 15:45:32;;;;;;;;;;;;;;;26.41;48.83;99943.63;1086271;54;20046;-80
2022/06/04 15:46:52;;;;;;;;;;;;;;;26.37;48.71;99942.47;1085484;54;19962;-76
2022/06/04 15:48:00;;;;;;;;;;;;;;;26.38;49.24;99942.25;1084755;39;20056;-76
2022/06/04 15:49:10;;;;;;;;;;;;;;;26.22;50.14;99945.81;1085334;54;19951;-78
2022/06/04 15:55:56;;;;;;;;;;;;;;;26.14;50.10;99941.63;1085750;54;20429;-75
2022/06/04 15:56:58;;;;;;;;;;;;;;;26.20;50.13;99939.78;1085422;54;19961;-76
2022/06/04 15:58:04;;;;;;;;;;;;;;;26.08;50.24;99937.94;1086557;54;19950;-80
2022/06/04 15:59:10;;;;;;;;;;;;;;;25.89;50.57;99940.09;1086087;54;19950;-77
2022/06/04 16:00:18;;;;;;;;;;;;;;;25.86;50.97;99940.59;1085003;54;19953;-77
2022/06/04 16:01:26;;;;;;;;;;;;;;;25.92;50.50;99934.13;1085355;54;19939;-76
2022/06/04 16:02:29;;;;;;;;;;;;;;;25.89;50.62;99931.06;1085653;54;19939;-76
2022/06/04 16:03:35;;;;;;;;;;;;;;;25.85;50.72;99928.00;1086091;54;20444;-77
2022/06/04 16:04:40;;;;;;;;;;;;;;;25.91;50.22;99927.00;1085237;54;19973;-77
2022/06/04 16:05:48;;;;;;;;;;;;;;;25.94;50.42;99926.50;1085807;54;19958;-76
2022/06/04 16:06:52;;;;;;;;;;;;;;;25.97;50.36;99930.63;1085868;54;19986;-76
2022/06/04 16:08:05;;;;;;;;;;;;;;;25.78;51.14;99932.81;1086255;54;19973;-77
2022/06/04 16:09:14;;;;;;;;;;;;;;;25.83;51.03;99930.16;1086188;54;19998;-77
2022/06/04 16:10:23;;;;;;;;;;;;;;;25.85;51.35;99917.03;1086018;54;19962;-76
2022/06/04 16:11:33;;;;;;;;;;;;;;;25.91;51.13;99926.16;1085521;54;19947;-78
2022/06/04 16:12:35;;;;;;;;;;;;;;;25.92;50.86;99928.66;1085546;54;19950;-79
2022/06/04 16:13:44;;;;;;;;;;;;;;;25.96;51.20;99921.59;1085340;54;19957;-77
2022/06/04 16:14:55;;;;;;;;;;;;;;;25.91;50.96;99921.50;1085079;54;19946;-77
2022/06/04 16:16:13;;;;;;;;;;;;;;;25.86;51.49;99918.72;1084985;54;19950;-76
2022/06/04 16:17:23;;;;;;;;;;;;;;;25.89;51.18;99922.84;1084924;54;19952;-76
2022/06/04 16:18:29;;;;;;;;;;;;;;;25.89;51.41;99922.84;1085292;54;19959;-77
2022/06/04 16:19:48;;;;;;;;;;;;;;;25.88;51.36;99922.03;1086205;39;20362;-76
2022/06/04 16:20:52;;;;;;;;;;;;;;;25.86;51.15;99915.97;1085109;54;19947;-79
2022/06/04 16:22:02;;;;;;;;;;;;;;;25.87;51.29;99914.91;1084762;54;19946;-79
2022/06/04 16:23:12;;;;;;;;;;;;;;;25.81;51.34;99915.88;1085341;54;19970;-78
2022/06/04 16:24:19;;;;;;;;;;;;;;;25.76;51.30;99913.06;1086086;54;19950;-78
2022/06/04 16:25:30;;;;;;;;;;;;;;;25.70;50.62;99918.44;1085634;54;20033;-78
2022/06/04 16:26:34;;;;;;;;;;;;;;;25.56;50.76;99924.47;1086157;54;19947;-78
2022/06/04 16:27:38;;;;;;;;;;;;;;;25.47;50.70;99924.88;1087150;39;20329;-78
2022/06/04 16:28:48;;;;;;;;;;;;;;;25.45;50.49;99928.97;1086144;46;19986;-81
2022/06/04 16:29:52;;;;;;;;;;;;;;;25.37;49.85;99925.53;1085887;54;19946;-79
2022/06/04 16:31:12;;;;;;;;;;;;;;;25.34;50.05;99923.28;1085692;54;19953;-78
2022/06/04 16:32:15;;;;;;;;;;;;;;;25.33;50.42;99921.59;1085873;54;19951;-76
2022/06/04 16:33:23;;;;;;;;;;;;;;;25.43;50.16;99914.69;1086155;54;19957;-77
2022/06/04 16:34:44;;;;;;;;;;;;;;;25.52;50.07;99915.94;1085638;54;19962;-77
2022/06/04 16:36:12;;;;;;;;;;;;;;;25.59;49.68;99913.91;1086412;54;19946;-77
2022/06/04 16:37:21;;;;;;;;;;;;;;;25.66;49.67;99909.09;1086386;54;19950;-79
2022/06/04 16:38:30;;;;;;;;;;;;;;;25.66;48.86;99909.09;1086750;54;19938;-77
2022/06/04 16:39:46;;;;;;;;;;;;;;;25.69;49.07;99902.28;1086598;54;19970;-80
2022/06/04 16:42:10;;;;;;;;;;;;;;;25.47;50.10;99903.00;1086123;54;19986;-75
2022/06/04 16:43:15;;;;;;;;;;;;;;;25.48;50.30;99904.66;1086343;54;19958;-78
2022/06/04 16:44:22;;;;;;;;;;;;;;;25.49;50.45;99902.78;1087016;47;19947;-76
2022/06/04 16:45:27;;;;;;;;;;;;;;;25.43;50.86;99909.22;1086327;54;20008;-80
2022/06/04 16:46:32;;;;;;;;;;;;;;;25.35;50.99;99902.22;1086576;54;19938;-78
2022/06/04 16:47:48;;;;;;;;;;;;;;;25.36;51.07;99906.63;1086063;54;19946;-76
2022/06/04 16:48:52;;;;;;;;;;;;;;;25.36;51.62;99907.44;1086144;54;19954;-80
2022/06/04 16:49:55;;;;;;;;;;;;;;;25.37;52.09;99903.63;1086025;54;19958;-78
2022/06/04 16:50:59;;;;;;;;;;;;;;;25.41;51.72;99906.75;1085830;54;19938;-76
2022/06/04 16:52:02;;;;;;;;;;;;;;;25.37;51.66;99903.63;1086285;54;19938;-78
2022/06/04 16:53:06;;;;;;;;;;;;;;;25.28;52.22;99905.13;1086187;54;20045;-75
2022/06/04 16:54:07;;;;;;;;;;;;;;;25.16;52.10;99904.34;1086530;54;19972;-78
2022/06/04 16:55:12;;;;;;;;;;;;;;;25.18;52.27;99907.66;1085550;54;19947;-75
2022/06/04 16:56:16;;;;;;;;;;;;;;;25.28;51.85;99904.28;1085855;54;19947;-77
2022/06/04 16:57:20;;;;;;;;;;;;;;;25.34;51.51;99914.25;1085581;54;19977;-78
2022/06/04 16:58:24;;;;;;;;;;;;;;;25.33;52.08;99916.13;1085792;54;19954;-76
2022/06/04 16:59:25;;;;;;;;;;;;;;;25.31;51.86;99910.09;1085944;54;19973;-77
2022/06/04 17:00:32;;;;;;;;;;;;;;;25.26;51.89;99914.66;1086579;39;20313;-78
2022/06/04 17:01:33;;;;;;;;;;;;;;;25.27;52.28;99906.19;1086690;54;19946;-76
2022/06/04 17:02:52;;;;;;;;;;;;;;;25.29;52.45;99912.25;1086406;54;20055;-76
2022/06/04 17:03:55;;;;;;;;;;;;;;;25.29;52.12;99914.97;1086581;54;20474;-78
2022/06/04 17:05:05;;;;;;;;;;;;;;;25.29;52.36;99905.94;1085521;54;19939;-74
2022/06/04 17:06:25;;;;;;;;;;;;;;;25.34;51.91;99911.50;1085162;54;19947;-76
2022/06/04 17:07:34;;;;;;;;;;;;;;;25.31;52.40;99910.09;1086098;54;19946;-77
2022/06/04 17:08:45;;;;;;;;;;;;;;;25.22;52.27;99909.66;1086319;54;19998;-78
2022/06/04 17:10:07;;;;;;;;;;;;;;;25.21;52.30;99898.97;1085985;54;20015;-76
2022/06/04 17:11:11;;;;;;;;;;;;;;;25.12;52.70;99903.19;1085679;54;19946;-79
2022/06/04 17:12:36;;;;;;;;;;;;;;;25.12;52.82;99905.91;1085380;54;19935;-80
2022/06/04 17:13:42;;;;;;;;;;;;;;;25.11;53.14;99902.34;1085399;54;20488;-76
2022/06/04 17:14:52;;;;;;;;;;;;;;;25.11;53.10;99905.06;1085841;46;19958;-78
2022/06/04 17:16:11;;;;;;;;;;;;;;;25.03;52.98;99909.00;1085952;54;19950;-79
2022/06/04 17:17:20;;;;;;;;;;;;;;;25.12;53.20;99909.47;1085039;54;19950;-75
2022/06/04 17:18:33;;;;;;;;;;;;;;;25.14;52.95;99906.47;1085035;54;19965;-77
2022/06/04 17:19:40;;;;;;;;;;;;;;;25.11;52.92;99904.25;1085946;54;20715;-78
2022/06/04 17:20:44;;;;;;;;;;;;;;;25.10;53.24;99899.84;1086248;54;19938;-74
2022/06/04 17:21:59;;;;;;;;;;;;;;;25.02;53.40;99901.91;1085968;54;19950;-77
2022/06/04 17:23:08;;;;;;;;;;;;;;;25.03;53.52;99905.47;1085979;54;19953;-80
2022/06/04 17:24:21;;;;;;;;;;;;;;;25.05;53.71;99904.13;1087269;39;20333;-77
2022/06/04 17:25:38;;;;;;;;;;;;;;;25.10;53.72;99905.31;1085189;54;19962;-78
2022/06/04 17:26:54;;;;;;;;;;;;;;;25.10;53.45;99903.41;1085298;54;19950;-80
2022/06/04 17:28:07;;;;;;;;;;;;;;;25.04;52.99;99907.13;1086642;54;19966;-80
2022/06/04 17:29:19;;;;;;;;;;;;;;;25.06;52.96;99910.44;1085477;54;19950;-80
2022/06/04 17:30:22;;;;;;;;;;;;;;;25.10;52.70;99908.06;1086860;54;20479;-76
2022/06/04 17:31:31;;;;;;;;;;;;;;;25.11;52.41;99907.00;1086551;54;19946;-78
2022/06/04 17:32:43;;;;;;;;;;;;;;;25.10;52.29;99910.78;1087369;54;20488;-77
2022/06/04 17:33:49;;;;;;;;;;;;;;;25.13;52.05;99911.13;1085871;54;19946;-75
2022/06/04 17:35:03;;;;;;;;;;;;;;;25.18;52.15;99913.94;1087669;39;20585;-78
2022/06/04 17:36:14;;;;;;;;;;;;;;;25.14;52.27;99911.94;1087108;54;19951;-77
2022/06/04 17:37:26;;;;;;;;;;;;;;;25.17;52.23;99917.78;1086223;54;19947;-76
2022/06/04 17:38:38;;;;;;;;;;;;;;;25.21;51.24;99912.66;1085698;54;19954;-75
2022/06/04 17:39:49;;;;;;;;;;;;;;;25.21;51.35;99920.84;1086370;54;19943;-76
2022/06/04 17:40:57;;;;;;;;;;;;;;;25.17;51.57;99914.19;1085543;54;19946;-76
2022/06/04 17:42:00;;;;;;;;;;;;;;;25.08;51.43;99921.97;1085310;54;19943;-77
2022/06/04 17:43:04;;;;;;;;;;;;;;;25.06;51.40;99922.22;1085410;54;19970;-75
2022/06/04 17:44:08;;;;;;;;;;;;;;;25.05;51.04;99919.72;1085121;54;19953;-75
2022/06/04 17:45:12;;;;;;;;;;;;;;;25.04;51.20;99918.06;1085047;54;19946;-75
2022/06/04 17:46:18;;;;;;;;;;;;;;;24.96;51.47;99924.75;1085283;54;19950;-77
2022/06/04 17:47:19;;;;;;;;;;;;;;;24.94;51.42;99931.53;1085165;54;19947;-77
2022/06/04 17:48:22;;;;;;;;;;;;;;;24.96;51.86;99930.22;1085556;54;19938;-76
2022/06/04 17:49:23;;;;;;;;;;;;;;;24.92;52.52;99931.78;1085641;54;19946;-77
2022/06/04 17:50:28;;;;;;;;;;;;;;;24.85;52.76;99925.59;1085659;54;19946;-77
2022/06/04 17:51:29;;;;;;;;;;;;;;;24.82;53.01;99928.84;1085223;54;19942;-77
2022/06/04 17:52:33;;;;;;;;;;;;;;;24.81;53.10;99929.91;1084929;54;19938;-76
2022/06/04 17:53:34;;;;;;;;;;;;;;;24.85;52.68;99928.34;1085207;39;20349;-75
2022/06/04 17:54:38;;;;;;;;;;;;;;;24.92;52.99;99926.31;1084667;54;19954;-75
2022/06/04 17:55:41;;;;;;;;;;;;;;;24.91;52.57;99927.38;1084646;54;19970;-77
2022/06/04 17:56:45;;;;;;;;;;;;;;;24.83;52.80;99922.31;1085557;54;19947;-77
2022/06/04 17:57:49;;;;;;;;;;;;;;;24.76;52.86;99926.00;1085503;54;19953;-76
2022/06/04 17:58:56;;;;;;;;;;;;;;;24.75;53.01;99927.06;1085417;46;19998;-76
2022/06/04 17:59:57;;;;;;;;;;;;;;;24.76;53.13;99923.25;1085059;54;20061;-77
2022/06/04 18:01:01;;;;;;;;;;;;;;;24.77;53.15;99929.56;1084665;54;19977;-76
2022/06/04 18:02:02;;;;;;;;;;;;;;;24.80;53.12;99926.34;1083450;54;19959;-76
2022/06/04 18:03:07;;;;;;;;;;;;;;;24.82;53.41;99920.66;1084308;54;19947;-74
2022/06/04 18:04:11;;;;;;;;;;;;;;;24.86;53.28;99930.00;1084611;54;20046;-75
2022/06/04 18:05:13;;;;;;;;;;;;;;;24.83;53.45;99922.31;1084708;54;20445;-75
2022/06/04 18:06:17;;;;;;;;;;;;;;;24.82;52.60;99920.66;1084810;54;19950;-75
2022/06/04 18:07:18;;;;;;;;;;;;;;;24.77;52.54;99918.63;1085359;54;19970;-76
2022/06/04 18:08:21;;;;;;;;;;;;;;;24.72;52.62;99927.56;1085808;54;19946;-75
2022/06/04 18:09:25;;;;;;;;;;;;;;;24.76;52.71;99927.91;1085065;54;19960;-76
2022/06/04 18:10:26;;;;;;;;;;;;;;;24.78;52.43;99923.03;1085848;54;19951;-78
2022/06/04 18:11:30;;;;;;;;;;;;;;;24.81;52.49;99924.44;1086110;54;20617;-76
2022/06/04 18:12:32;;;;;;;;;;;;;;;24.80;52.37;99922.78;1085494;46;19994;-75
2022/06/04 18:13:35;;;;;;;;;;;;;;;24.83;52.42;99934.06;1085935;46;19946;-76
2022/06/04 18:14:39;;;;;;;;;;;;;;;24.78;52.06;99925.75;1085803;54;19951;-77
2022/06/04 18:15:45;;;;;;;;;;;;;;;24.73;52.34;99931.13;1086171;54;19950;-76
2022/06/04 18:16:47;;;;;;;;;;;;;;;24.76;52.22;99928.72;1086477;39;20428;-75
2022/06/04 18:17:50;;;;;;;;;;;;;;;24.75;52.17;99937.19;1084036;54;19950;-76
2022/06/04 18:18:51;;;;;;;;;;;;;;;24.77;52.81;99927.66;1083909;54;19973;-75
2022/06/04 18:19:56;;;;;;;;;;;;;;;24.75;53.04;99932.53;1084725;54;19950;-75
2022/06/04 18:21:00;;;;;;;;;;;;;;;24.71;52.63;99927.78;1085322;54;20050;-77
2022/06/04 18:22:01;;;;;;;;;;;;;;;24.68;52.73;99926.38;1086128;54;19951;-76
2022/06/04 18:23:05;;;;;;;;;;;;;;;24.63;52.55;99923.50;1086947;54;19954;-75
2022/06/04 18:24:06;;;;;;;;;;;;;;;24.60;52.45;99923.97;1086517;54;19950;-75
2022/06/04 18:25:12;;;;;;;;;;;;;;;24.59;52.69;99917.69;1085812;54;19951;-76
2022/06/04 18:26:13;;;;;;;;;;;;;;;24.54;52.28;99924.97;1086018;39;20337;-77
2022/06/04 18:27:17;;;;;;;;;;;;;;;24.54;52.75;99925.78;1085319;54;20532;-78
2022/06/04 18:28:18;;;;;;;;;;;;;;;24.53;52.50;99926.84;1084921;54;20041;-77
2022/06/04 18:29:22;;;;;;;;;;;;;;;24.57;52.62;99927.19;1084416;54;19947;-75
2022/06/04 18:30:29;;;;;;;;;;;;;;;24.54;52.18;99927.69;1084643;54;19947;-76
2022/06/04 18:31:34;;;;;;;;;;;;;;;24.48;52.89;99939.56;1085427;54;20465;-75
2022/06/04 18:32:35;;;;;;;;;;;;;;;24.51;52.69;99936.34;1084292;54;19990;-76
2022/06/04 18:33:39;;;;;;;;;;;;;;;24.56;52.91;99939.22;1084739;54;19951;-79
2022/06/04 18:34:41;;;;;;;;;;;;;;;24.57;52.80;99941.69;1084249;54;19946;-75
2022/06/04 18:35:46;;;;;;;;;;;;;;;24.60;52.52;99940.38;1084725;54;19946;-77
2022/06/04 18:36:47;;;;;;;;;;;;;;;24.61;52.60;99939.31;1085429;39;20353;-76
2022/06/04 18:37:51;;;;;;;;;;;;;;;24.58;52.89;99937.06;1085037;54;19946;-76
2022/06/04 18:38:52;;;;;;;;;;;;;;;24.57;52.77;99938.97;1085248;54;19958;-76
2022/06/04 18:39:56;;;;;;;;;;;;;;;24.59;53.04;99938.72;1085151;54;19973;-75
2022/06/04 18:40:57;;;;;;;;;;;;;;;24.58;52.74;99945.25;1085070;54;19969;-75
2022/06/04 18:54:22;;;;;;;;;;;;;;;24.58;52.91;99943.38;1085080;54;19946;-75
2022/06/04 18:54:58;;;;;;;;;;;;;;;24.22;53.40;99939.84;1085429;54;20405;-77
2022/06/04 18:55:59;;;;;;;;;;;;;;;24.22;53.45;99939.84;1087364;39;20381;-78
2022/06/04 18:57:03;;;;;;;;;;;;;;;24.20;53.32;99935.66;1085929;54;19942;-77
2022/06/04 18:58:04;;;;;;;;;;;;;;;24.17;53.36;99936.16;1085655;54;19939;-76
2022/06/04 18:59:09;;;;;;;;;;;;;;;24.16;53.33;99931.75;1085124;54;19946;-76
2022/06/04 19:00:11;;;;;;;;;;;;;;;24.08;53.58;99933.78;1085661;54;19939;-77
2022/06/04 19:01:19;;;;;;;;;;;;;;;24.11;53.70;99932.47;1085783;54;19946;-77
2022/06/04 19:02:20;;;;;;;;;;;;;;;24.09;53.87;99935.41;1085123;54;19939;-75
2022/06/04 19:03:25;;;;;;;;;;;;;;;24.09;54.13;99926.41;1085262;54;19947;-76
2022/06/04 19:04:26;;;;;;;;;;;;;;;24.08;53.63;99931.06;1084909;54;20031;-76
2022/06/04 19:05:30;;;;;;;;;;;;;;;24.07;54.05;99937.59;1085423;54;19946;-76
2022/06/04 19:06:31;;;;;;;;;;;;;;;24.04;53.98;99932.59;1085178;54;19966;-77
2022/06/04 19:08:53;;;;;;;;;;;;;;;23.90;54.09;99931.94;1085137;54;19946;-76
2022/06/04 19:09:55;;;;;;;;;;;;;;;23.89;54.43;99932.19;1085316;54;19939;-77
2022/06/04 19:13:41;;;;;;;;;;;;;;;23.92;54.42;99931.69;1085201;54;19939;-76
2022/06/04 19:14:42;;;;;;;;;;;;;;;23.86;54.50;99921.75;1085286;54;20054;-76
2022/06/04 19:15:50;;;;;;;;;;;;;;;23.80;54.73;99927.09;1085415;54;20047;-75
2022/06/04 19:16:56;;;;;;;;;;;;;;;23.81;54.77;99928.72;1089655;39;20314;-76
2022/06/04 19:17:57;;;;;;;;;;;;;;;23.83;54.60;99921.13;1096054;39;20410;-77
2022/06/04 19:19:02;;;;;;;;;;;;;;;23.80;55.08;99929.81;1087515;54;19939;-77
2022/06/04 19:25:14;;;;;;;;;;;;;;;23.74;55.34;99935.38;1084730;54;20042;-76
2022/06/04 19:26:15;;;;;;;;;;;;;;;23.72;55.88;99937.50;1085166;54;19950;-76
2022/06/04 19:27:21;;;;;;;;;;;;;;;23.67;55.65;99938.22;1084985;54;20023;-77
2022/06/04 19:28:22;;;;;;;;;;;;;;;23.65;55.84;99937.59;1085561;47;19981;-78
2022/06/04 19:29:26;;;;;;;;;;;;;;;23.55;56.53;99940.06;1086564;54;19954;-77
2022/06/04 19:30:27;;;;;;;;;;;;;;;23.52;56.58;99942.19;1085471;54;20433;-78
2022/06/04 19:31:31;;;;;;;;;;;;;;;23.51;56.22;99936.97;1086067;54;19946;-77
2022/06/04 19:32:37;;;;;;;;;;;;;;;23.52;56.53;99938.66;1085628;54;19973;-77
2022/06/04 19:33:38;;;;;;;;;;;;;;;23.50;56.98;99938.03;1085965;54;19946;-77
2022/06/04 19:34:42;;;;;;;;;;;;;;;23.48;56.73;99941.00;1085972;54;19939;-77
2022/06/04 19:35:44;;;;;;;;;;;;;;;23.51;56.36;99940.56;1085585;54;19938;-76
2022/06/04 19:36:47;;;;;;;;;;;;;;;23.51;56.38;99942.44;1085331;54;19950;-77
2022/06/04 19:37:48;;;;;;;;;;;;;;;23.49;56.67;99939.09;1084572;54;19951;-76
2022/06/04 19:38:54;;;;;;;;;;;;;;;23.46;56.97;99940.41;1084761;54;19938;-77
2022/06/04 19:39:55;;;;;;;;;;;;;;;23.45;56.73;99937.91;1085292;54;19962;-76
2022/06/04 19:40:59;;;;;;;;;;;;;;;23.45;56.69;99944.19;1084392;54;19946;-78
2022/06/04 19:42:03;;;;;;;;;;;;;;;23.47;56.57;99942.06;1085095;54;20493;-77